Time;durP1;ratioP1;P1;durP2;ratioP2;P2;SDS_P1;SDS_P2;PMS_P1;PMS_P2;Temp;Humidity;BMP_temperature;BMP_pressure;BME280_temperature;BME280_humidity;BME280_pressure;Samples;Min_cycle;Max_cycle;Signal;HPM_P1;HPM_P2
2023/04/18 00:02:03;;;;;;;13.57;6.83;;;;;;;;;;5036331;28;20241;-67
2023/04/18 00:04:28;;;;;;;11.55;7.00;;;;;;;;;;5045695;28;20186;-67
2023/04/18 00:06:53;;;;;;;15.38;7.88;;;;;;;;;;5036884;28;20205;-68
2023/04/18 00:09:19;;;;;;;9.82;6.97;;;;;;;;;;5046757;28;20189;-67
2023/04/18 00:11:44;;;;;;;10.53;6.67;;;;;;;;;;5032243;28;20209;-67
2023/04/18 00:14:10;;;;;;;10.53;6.80;;;;;;;;;;5033718;28;20654;-68
2023/04/18 00:16:36;;;;;;;14.18;7.15;;;;;;;;;;5030204;28;20276;-67
2023/04/18 00:19:04;;;;;;;11.05;6.38;;;;;;;;;;5031038;28;20296;-68
2023/04/18 00:21:30;;;;;;;15.63;6.90;;;;;;;;;;5028374;28;20194;-67
2023/04/18 00:23:56;;;;;;;11.20;6.83;;;;;;;;;;5040266;28;20598;-67
2023/04/18 00:26:21;;;;;;;12.70;7.33;;;;;;;;;;5044098;28;20181;-68
2023/04/18 00:28:47;;;;;;;13.87;7.07;;;;;;;;;;5035280;28;20270;-68
2023/04/18 00:31:12;;;;;;;14.30;6.90;;;;;;;;;;5035163;28;20197;-67
2023/04/18 00:33:37;;;;;;;9.80;6.80;;;;;;;;;;5038795;28;20982;-67
2023/04/18 00:36:03;;;;;;;11.37;6.60;;;;;;;;;;5041653;28;20308;-67
2023/04/18 00:38:28;;;;;;;17.03;8.40;;;;;;;;;;5047950;28;20205;-67
2023/04/18 00:40:54;;;;;;;12.67;7.30;;;;;;;;;;5047515;28;20205;-67
2023/04/18 00:43:22;;;;;;;15.93;7.67;;;;;;;;;;5046037;28;20201;-67
2023/04/18 00:45:47;;;;;;;12.30;7.03;;;;;;;;;;5047742;28;20599;-67
2023/04/18 00:48:13;;;;;;;12.10;6.87;;;;;;;;;;5047363;28;20273;-67
2023/04/18 00:50:40;;;;;;;14.27;7.60;;;;;;;;;;5042114;28;20295;-68
2023/04/18 00:53:06;;;;;;;13.20;7.67;;;;;;;;;;5039694;28;20228;-67
2023/04/18 00:55:31;;;;;;;13.67;7.80;;;;;;;;;;5033063;28;20599;-67
2023/04/18 00:57:57;;;;;;;12.57;7.83;;;;;;;;;;5047596;28;20304;-69
2023/04/18 01:00:23;;;;;;;17.03;7.90;;;;;;;;;;5044742;28;20295;-67
2023/04/18 01:02:51;;;;;;;13.77;7.73;;;;;;;;;;5046176;28;20687;-67
2023/04/18 01:05:17;;;;;;;13.73;8.13;;;;;;;;;;5044863;28;20193;-67
2023/04/18 01:07:43;;;;;;;13.00;7.27;;;;;;;;;;5042858;28;20185;-67
2023/04/18 01:10:09;;;;;;;11.80;7.22;;;;;;;;;;5045498;28;20239;-67
2023/04/18 01:12:36;;;;;;;12.10;7.97;;;;;;;;;;5033469;28;20197;-67
2023/04/18 01:15:05;;;;;;;11.40;7.60;;;;;;;;;;5045668;28;20186;-67
2023/04/18 01:17:33;;;;;;;10.80;7.43;;;;;;;;;;5048067;28;20209;-67
2023/04/18 01:20:00;;;;;;;13.90;7.80;;;;;;;;;;5042983;28;20209;-68
2023/04/18 01:22:27;;;;;;;16.83;8.35;;;;;;;;;;5046345;28;20189;-68
2023/04/18 01:24:52;;;;;;;14.68;7.55;;;;;;;;;;5049593;28;20193;-68
2023/04/18 01:27:18;;;;;;;14.82;7.97;;;;;;;;;;5038648;28;20194;-68
2023/04/18 01:29:43;;;;;;;14.48;7.90;;;;;;;;;;5037410;28;20280;-68
2023/04/18 01:32:09;;;;;;;11.43;7.55;;;;;;;;;;5050423;28;20232;-68
2023/04/18 01:34:34;;;;;;;11.65;7.75;;;;;;;;;;5048689;28;20189;-68
2023/04/18 01:37:00;;;;;;;12.65;7.75;;;;;;;;;;5049594;28;20222;-68
2023/04/18 01:39:25;;;;;;;18.65;8.15;;;;;;;;;;5043591;28;20748;-68
2023/04/18 01:41:51;;;;;;;19.38;8.45;;;;;;;;;;5047722;28;20197;-68
2023/04/18 01:44:16;;;;;;;13.23;8.07;;;;;;;;;;5048775;28;20200;-68
2023/04/18 01:46:42;;;;;;;11.97;8.03;;;;;;;;;;5043909;28;20624;-68
2023/04/18 01:49:08;;;;;;;12.07;7.00;;;;;;;;;;5046455;28;20290;-68
2023/04/18 01:51:34;;;;;;;15.03;8.30;;;;;;;;;;5045133;28;20247;-68
2023/04/18 01:53:59;;;;;;;11.20;8.00;;;;;;;;;;5046553;28;20504;-68
2023/04/18 01:56:24;;;;;;;14.83;8.13;;;;;;;;;;5049873;28;20205;-68
2023/04/18 01:58:50;;;;;;;12.83;8.47;;;;;;;;;;5037067;28;20227;-68
2023/04/18 02:01:15;;;;;;;15.68;8.63;;;;;;;;;;5048014;28;20634;-68
2023/04/18 02:03:41;;;;;;;12.38;7.32;;;;;;;;;;5043928;28;20194;-69
2023/04/18 02:06:06;;;;;;;17.20;8.35;;;;;;;;;;5047898;28;20622;-68
2023/04/18 02:08:34;;;;;;;13.77;8.18;;;;;;;;;;5048771;28;20293;-68
2023/04/18 02:11:00;;;;;;;16.50;8.68;;;;;;;;;;5036959;28;20185;-68
2023/04/18 02:13:26;;;;;;;17.13;9.82;;;;;;;;;;5043681;28;20586;-68
2023/04/18 02:15:51;;;;;;;14.07;8.60;;;;;;;;;;5048874;28;20213;-68
2023/04/18 02:18:17;;;;;;;15.23;8.45;;;;;;;;;;5046970;28;20214;-68
2023/04/18 02:20:42;;;;;;;17.08;10.00;;;;;;;;;;5047884;28;20684;-68
2023/04/18 02:23:08;;;;;;;15.45;9.50;;;;;;;;;;5047109;28;20795;-68
2023/04/18 02:25:33;;;;;;;15.57;9.18;;;;;;;;;;5036643;28;21056;-68
2023/04/18 02:27:59;;;;;;;15.68;8.65;;;;;;;;;;5050086;28;20208;-68
2023/04/18 02:30:25;;;;;;;13.70;8.18;;;;;;;;;;5041867;28;20274;-69
2023/04/18 02:32:51;;;;;;;15.23;9.05;;;;;;;;;;5034115;28;20343;-68
2023/04/18 02:35:18;;;;;;;14.32;8.68;;;;;;;;;;5046193;28;20276;-68
2023/04/18 02:37:44;;;;;;;14.88;8.85;;;;;;;;;;5048915;28;20298;-68
2023/04/18 02:40:09;;;;;;;14.70;9.13;;;;;;;;;;5044672;28;20194;-68
2023/04/18 02:42:35;;;;;;;15.63;9.32;;;;;;;;;;5045219;28;21781;-69
2023/04/18 02:45:00;;;;;;;13.70;9.20;;;;;;;;;;5046732;28;20568;-68
2023/04/18 02:47:26;;;;;;;14.13;9.15;;;;;;;;;;5044685;28;20186;-68
2023/04/18 02:49:51;;;;;;;14.40;9.27;;;;;;;;;;5047187;28;20649;-68
2023/04/18 02:52:16;;;;;;;15.15;9.20;;;;;;;;;;5046224;28;20217;-68
2023/04/18 02:54:42;;;;;;;15.93;9.32;;;;;;;;;;5039776;28;20201;-68
2023/04/18 02:57:07;;;;;;;17.27;9.30;;;;;;;;;;5040307;28;20716;-68
2023/04/18 02:59:33;;;;;;;16.90;9.63;;;;;;;;;;5041620;28;20217;-68
2023/04/18 03:01:58;;;;;;;15.88;9.85;;;;;;;;;;5048258;28;20301;-68
2023/04/18 03:04:23;;;;;;;15.60;9.77;;;;;;;;;;5045446;28;20549;-68
2023/04/18 03:06:49;;;;;;;13.82;9.15;;;;;;;;;;5043817;28;20225;-69
2023/04/18 03:09:15;;;;;;;12.85;9.43;;;;;;;;;;5042039;28;20205;-68
2023/04/18 03:11:40;;;;;;;16.45;9.98;;;;;;;;;;5039537;28;20193;-68
2023/04/18 03:14:06;;;;;;;14.73;10.13;;;;;;;;;;5031115;28;20179;-69
2023/04/18 03:16:31;;;;;;;15.75;10.00;;;;;;;;;;5037844;28;20186;-68
2023/04/18 03:18:57;;;;;;;14.30;9.65;;;;;;;;;;5033623;28;20230;-68
2023/04/18 03:21:22;;;;;;;14.80;9.73;;;;;;;;;;5044089;28;20259;-68
2023/04/18 03:23:48;;;;;;;17.38;10.35;;;;;;;;;;5043104;28;20220;-69
2023/04/18 03:26:13;;;;;;;15.85;9.38;;;;;;;;;;5042059;28;20190;-68
2023/04/18 03:28:39;;;;;;;13.73;9.40;;;;;;;;;;5028848;28;20218;-68
2023/04/18 03:31:05;;;;;;;15.45;10.23;;;;;;;;;;5042803;28;20196;-68
2023/04/18 03:33:30;;;;;;;14.77;9.65;;;;;;;;;;5032857;28;20186;-68
2023/04/18 03:35:56;;;;;;;15.00;10.13;;;;;;;;;;5041028;28;20226;-68
2023/04/18 03:38:21;;;;;;;16.02;9.95;;;;;;;;;;5038755;28;20661;-68
2023/04/18 03:40:47;;;;;;;16.20;10.25;;;;;;;;;;5044774;28;20202;-68
2023/04/18 03:43:13;;;;;;;13.35;9.35;;;;;;;;;;5041761;28;20202;-68
2023/04/18 03:45:38;;;;;;;15.30;10.02;;;;;;;;;;5037038;28;20190;-68
2023/04/18 03:48:04;;;;;;;18.15;9.93;;;;;;;;;;5040722;28;20190;-68
2023/04/18 03:50:29;;;;;;;17.30;10.52;;;;;;;;;;5043270;28;20679;-68
2023/04/18 03:52:54;;;;;;;15.80;11.23;;;;;;;;;;5043653;28;20661;-68
2023/04/18 03:55:20;;;;;;;16.58;9.85;;;;;;;;;;5035359;28;20250;-69
2023/04/18 03:57:46;;;;;;;14.82;10.30;;;;;;;;;;5036512;28;20206;-68
2023/04/18 04:00:13;;;;;;;16.55;10.45;;;;;;;;;;5042459;28;20216;-69
2023/04/18 04:02:38;;;;;;;16.60;10.23;;;;;;;;;;5046759;28;20196;-69
2023/04/18 04:05:04;;;;;;;17.60;9.90;;;;;;;;;;5044839;28;20492;-68
2023/04/18 04:07:31;;;;;;;14.32;10.10;;;;;;;;;;5046415;28;20205;-68
2023/04/18 04:09:59;;;;;;;17.70;11.13;;;;;;;;;;5043345;28;20185;-69
2023/04/18 04:12:25;;;;;;;15.90;10.35;;;;;;;;;;5033811;28;20181;-68
2023/04/18 04:14:51;;;;;;;15.30;9.98;;;;;;;;;;5031922;28;20250;-68
2023/04/18 04:17:16;;;;;;;17.42;11.02;;;;;;;;;;5035969;28;20233;-67
2023/04/18 04:19:41;;;;;;;18.55;10.57;;;;;;;;;;5037420;28;20704;-68
2023/04/18 04:22:07;;;;;;;18.17;10.32;;;;;;;;;;5034035;28;20220;-68
2023/04/18 04:24:34;;;;;;;17.60;10.93;;;;;;;;;;5035684;28;20218;-68
2023/04/18 04:26:59;;;;;;;17.15;10.18;;;;;;;;;;5037203;28;20197;-67
2023/04/18 04:29:27;;;;;;;16.83;10.35;;;;;;;;;;5040473;28;20680;-68
2023/04/18 04:31:53;;;;;;;17.23;10.40;;;;;;;;;;5048760;28;20182;-67
2023/04/18 04:34:19;;;;;;;15.55;10.88;;;;;;;;;;5032711;28;20441;-67
2023/04/18 04:36:45;;;;;;;19.15;10.75;;;;;;;;;;5033479;28;20228;-67
2023/04/18 04:39:11;;;;;;;15.93;10.32;;;;;;;;;;5041973;28;20197;-67
2023/04/18 04:41:38;;;;;;;14.48;9.93;;;;;;;;;;5040423;28;20649;-68
2023/04/18 04:44:03;;;;;;;17.23;10.30;;;;;;;;;;5040734;28;20296;-67
2023/04/18 04:46:29;;;;;;;16.42;9.73;;;;;;;;;;5039876;28;20216;-67
2023/04/18 04:48:55;;;;;;;16.50;10.27;;;;;;;;;;5035481;28;20205;-68
2023/04/18 04:51:21;;;;;;;17.98;10.63;;;;;;;;;;5035616;28;20642;-68
2023/04/18 04:53:46;;;;;;;18.55;10.63;;;;;;;;;;5040417;28;20190;-67
2023/04/18 04:56:12;;;;;;;22.92;11.32;;;;;;;;;;5037112;28;20190;-67
2023/04/18 04:58:37;;;;;;;17.20;10.73;;;;;;;;;;5043379;28;20207;-68
2023/04/18 05:01:03;;;;;;;16.42;10.63;;;;;;;;;;5047447;28;20288;-67
2023/04/18 05:03:28;;;;;;;16.33;10.18;;;;;;;;;;5041977;28;20517;-68
2023/04/18 05:05:53;;;;;;;17.75;10.13;;;;;;;;;;5042314;28;20220;-68
2023/04/18 05:08:19;;;;;;;17.80;10.18;;;;;;;;;;5045150;28;20621;-67
2023/04/18 05:10:44;;;;;;;15.15;10.23;;;;;;;;;;5035108;28;20720;-67
2023/04/18 05:13:10;;;;;;;15.18;10.13;;;;;;;;;;5039878;28;20760;-68
2023/04/18 05:15:36;;;;;;;19.83;11.18;;;;;;;;;;5047316;28;20369;-68
2023/04/18 05:18:01;;;;;;;16.10;10.10;;;;;;;;;;5033656;28;20229;-68
2023/04/18 05:20:26;;;;;;;17.42;10.20;;;;;;;;;;5046963;28;20186;-68
2023/04/18 05:22:52;;;;;;;17.42;10.80;;;;;;;;;;5039248;28;20642;-67
2023/04/18 05:25:17;;;;;;;16.52;10.57;;;;;;;;;;5035257;28;20216;-68
2023/04/18 05:27:44;;;;;;;15.13;9.93;;;;;;;;;;5041318;28;20238;-67
2023/04/18 05:30:10;;;;;;;18.50;10.23;;;;;;;;;;5042106;28;20185;-67
2023/04/18 05:32:37;;;;;;;18.08;9.32;;;;;;;;;;5033258;28;20188;-67
2023/04/18 05:35:04;;;;;;;13.18;9.10;;;;;;;;;;5038613;28;20213;-67
2023/04/18 05:37:30;;;;;;;15.45;10.32;;;;;;;;;;5037808;28;20221;-68
2023/04/18 05:39:55;;;;;;;14.77;9.18;;;;;;;;;;5046745;28;20196;-68
2023/04/18 05:42:21;;;;;;;16.10;9.52;;;;;;;;;;5056545;28;20217;-68
2023/04/18 05:44:46;;;;;;;15.88;10.43;;;;;;;;;;5030807;28;20193;-68
2023/04/18 05:47:11;;;;;;;15.27;9.00;;;;;;;;;;5035544;28;20178;-67
2023/04/18 05:49:37;;;;;;;14.32;9.85;;;;;;;;;;5036060;28;20245;-68
2023/04/18 05:52:02;;;;;;;15.18;8.77;;;;;;;;;;5041239;28;20189;-68
2023/04/18 05:54:27;;;;;;;15.43;9.30;;;;;;;;;;5039998;28;20339;-68
2023/04/18 05:56:53;;;;;;;14.48;8.95;;;;;;;;;;5029696;28;20205;-69
2023/04/18 05:59:19;;;;;;;14.75;8.95;;;;;;;;;;5044719;28;20193;-68
2023/04/18 06:01:45;;;;;;;14.57;9.07;;;;;;;;;;5036949;28;20221;-69
2023/04/18 06:04:11;;;;;;;14.25;8.95;;;;;;;;;;5037252;28;20209;-67
2023/04/18 06:06:36;;;;;;;12.93;8.43;;;;;;;;;;5038416;28;20186;-68
2023/04/18 06:09:02;;;;;;;15.00;8.77;;;;;;;;;;5036920;28;20179;-67
2023/04/18 06:11:27;;;;;;;12.88;8.25;;;;;;;;;;5037130;28;20574;-68
2023/04/18 06:13:54;;;;;;;17.30;8.88;;;;;;;;;;5042637;28;20709;-68
2023/04/18 06:16:20;;;;;;;10.73;7.80;;;;;;;;;;5037253;28;20213;-68
2023/04/18 06:18:46;;;;;;;15.63;9.10;;;;;;;;;;5040806;28;20237;-67
2023/04/18 06:21:12;;;;;;;12.13;7.93;;;;;;;;;;5038318;28;20185;-68
2023/04/18 06:23:37;;;;;;;16.23;8.32;;;;;;;;;;5048948;28;20700;-68
2023/04/18 06:26:02;;;;;;;11.95;8.00;;;;;;;;;;5048077;28;20224;-68
2023/04/18 06:28:28;;;;;;;11.88;7.93;;;;;;;;;;5039816;28;20625;-68
2023/04/18 06:30:53;;;;;;;13.52;8.10;;;;;;;;;;5032357;28;20198;-68
2023/04/18 06:33:19;;;;;;;14.40;8.13;;;;;;;;;;5032346;28;20196;-68
2023/04/18 06:35:44;;;;;;;13.43;7.75;;;;;;;;;;5051354;28;20193;-68
2023/04/18 06:38:10;;;;;;;11.30;7.43;;;;;;;;;;5040068;28;20214;-69
2023/04/18 06:40:35;;;;;;;11.10;7.15;;;;;;;;;;5036092;28;20197;-69
2023/04/18 06:43:01;;;;;;;11.43;7.35;;;;;;;;;;5046224;28;20193;-68
2023/04/18 06:45:26;;;;;;;11.55;7.40;;;;;;;;;;5037214;28;20587;-68
2023/04/18 06:47:52;;;;;;;11.70;7.82;;;;;;;;;;5037693;28;20186;-67
2023/04/18 06:50:17;;;;;;;13.13;8.18;;;;;;;;;;5039003;28;20189;-68
2023/04/18 06:52:44;;;;;;;12.68;7.88;;;;;;;;;;5045266;28;20276;-68
2023/04/18 06:55:11;;;;;;;10.82;7.53;;;;;;;;;;5044549;28;20335;-68
2023/04/18 06:57:37;;;;;;;11.88;7.40;;;;;;;;;;5060604;28;20202;-67
2023/04/18 07:00:04;;;;;;;11.68;7.90;;;;;;;;;;5034018;28;20189;-68
2023/04/18 07:02:30;;;;;;;13.25;7.38;;;;;;;;;;5039830;28;20402;-69
2023/04/18 07:04:55;;;;;;;12.88;8.18;;;;;;;;;;5036269;28;20209;-68
2023/04/18 07:07:21;;;;;;;12.98;7.57;;;;;;;;;;5047429;28;20220;-68
2023/04/18 07:09:47;;;;;;;10.73;7.63;;;;;;;;;;5049786;28;20823;-68
2023/04/18 07:12:12;;;;;;;14.00;7.75;;;;;;;;;;5037053;28;20284;-67
2023/04/18 07:14:38;;;;;;;11.48;7.50;;;;;;;;;;5044297;28;20208;-68
2023/04/18 07:17:03;;;;;;;12.40;7.72;;;;;;;;;;5036420;28;20190;-69
2023/04/18 07:19:29;;;;;;;10.63;7.18;;;;;;;;;;5044204;28;20197;-68
2023/04/18 07:21:54;;;;;;;11.32;7.13;;;;;;;;;;5047565;28;20221;-67
2023/04/18 07:24:22;;;;;;;9.75;6.90;;;;;;;;;;5043773;28;20608;-67
2023/04/18 07:26:48;;;;;;;10.50;6.97;;;;;;;;;;5046527;28;20197;-69
2023/04/18 07:29:13;;;;;;;12.43;7.07;;;;;;;;;;5044315;28;20520;-68
2023/04/18 07:31:38;;;;;;;13.52;7.20;;;;;;;;;;5044424;28;20690;-68
2023/04/18 07:34:04;;;;;;;10.98;6.57;;;;;;;;;;5049049;28;20261;-68
2023/04/18 07:36:30;;;;;;;10.90;7.22;;;;;;;;;;5035892;28;20435;-67
2023/04/18 07:38:56;;;;;;;8.77;6.15;;;;;;;;;;5041172;28;20202;-67
2023/04/18 07:41:21;;;;;;;12.63;7.20;;;;;;;;;;5040217;28;20185;-67
2023/04/18 07:43:46;;;;;;;10.05;6.72;;;;;;;;;;5030422;28;20194;-67
2023/04/18 07:46:12;;;;;;;8.98;6.53;;;;;;;;;;5032895;28;20276;-67
2023/04/18 07:48:37;;;;;;;10.60;7.18;;;;;;;;;;5037872;28;20276;-67
2023/04/18 07:51:03;;;;;;;10.48;6.85;;;;;;;;;;5032062;28;20276;-68
2023/04/18 07:53:28;;;;;;;11.90;7.45;;;;;;;;;;5028079;28;20192;-67
2023/04/18 07:55:54;;;;;;;12.00;7.25;;;;;;;;;;5028328;28;20186;-68
2023/04/18 07:58:20;;;;;;;10.63;7.43;;;;;;;;;;5044858;28;20254;-68
2023/04/18 08:00:45;;;;;;;11.57;7.78;;;;;;;;;;5032739;28;20673;-68
2023/04/18 08:03:11;;;;;;;9.77;6.78;;;;;;;;;;5041109;28;20189;-68
2023/04/18 08:05:41;;;;;;;10.07;7.32;;;;;;;;;;5029616;28;20192;-68
2023/04/18 08:08:08;;;;;;;11.80;7.65;;;;;;;;;;5048248;28;20185;-69
2023/04/18 08:10:33;;;;;;;12.88;8.30;;;;;;;;;;5044142;28;20257;-68
2023/04/18 08:12:59;;;;;;;11.90;8.07;;;;;;;;;;5038978;28;20194;-68
2023/04/18 08:15:26;;;;;;;12.02;8.07;;;;;;;;;;5029076;28;20760;-68
2023/04/18 08:17:52;;;;;;;13.23;8.60;;;;;;;;;;5033405;28;20611;-68
2023/04/18 08:20:18;;;;;;;13.43;8.90;;;;;;;;;;5041820;28;20216;-68
2023/04/18 08:22:43;;;;;;;12.82;8.57;;;;;;;;;;5039297;28;20303;-68
2023/04/18 08:25:09;;;;;;;12.70;8.73;;;;;;;;;;5039134;28;20211;-68
2023/04/18 08:27:34;;;;;;;13.50;8.82;;;;;;;;;;5047471;28;20235;-68
2023/04/18 08:30:02;;;;;;;12.93;8.55;;;;;;;;;;5039732;28;20206;-68
2023/04/18 08:32:27;;;;;;;12.50;8.20;;;;;;;;;;5032125;28;20206;-68
2023/04/18 08:34:53;;;;;;;14.18;8.65;;;;;;;;;;5048030;28;20290;-68
2023/04/18 08:37:18;;;;;;;11.20;8.57;;;;;;;;;;5047744;28;20244;-68
2023/04/18 08:39:43;;;;;;;12.10;8.88;;;;;;;;;;5033315;28;20190;-68
2023/04/18 08:42:09;;;;;;;13.82;9.05;;;;;;;;;;5048191;28;20227;-68
2023/04/18 08:44:36;;;;;;;13.48;9.65;;;;;;;;;;5033589;28;20189;-68
2023/04/18 08:47:01;;;;;;;13.18;9.20;;;;;;;;;;5041809;28;20666;-69
2023/04/18 08:49:27;;;;;;;14.25;9.75;;;;;;;;;;5028418;28;20218;-68
2023/04/18 08:51:52;;;;;;;14.15;9.20;;;;;;;;;;5046283;28;20559;-68
2023/04/18 08:54:19;;;;;;;13.57;9.77;;;;;;;;;;5048540;28;20725;-68
2023/04/18 08:56:45;;;;;;;15.27;10.63;;;;;;;;;;5034674;28;20289;-68
2023/04/18 08:59:10;;;;;;;16.52;10.43;;;;;;;;;;5027699;28;20300;-68
2023/04/18 09:01:55;;;;;;;15.20;9.80;;;;;;;;;;5046416;28;20262;-68
2023/04/18 09:04:37;;;;;;;14.25;9.60;;;;;;;;;;5042990;28;20258;-68
2023/04/18 09:07:05;;;;;;;16.20;10.00;;;;;;;;;;5047460;28;20540;-68
2023/04/18 09:09:48;;;;;;;18.77;10.50;;;;;;;;;;5047642;28;20182;-68
2023/04/18 09:12:18;;;;;;;15.02;10.15;;;;;;;;;;5046967;28;20291;-69
2023/04/18 09:14:45;;;;;;;15.88;10.88;;;;;;;;;;5042458;28;20198;-69
2023/04/18 09:17:36;;;;;;;15.35;10.65;;;;;;;;;;5044426;28;20189;-69
2023/04/18 09:20:04;;;;;;;13.82;9.90;;;;;;;;;;5027499;28;20501;-69
2023/04/18 09:22:46;;;;;;;16.30;11.40;;;;;;;;;;5033111;28;20568;-68
2023/04/18 09:25:23;;;;;;;14.50;9.75;;;;;;;;;;5028932;28;20272;-69
2023/04/18 09:27:49;;;;;;;14.77;9.10;;;;;;;;;;5043584;28;20698;-69
2023/04/18 09:30:45;;;;;;;16.27;10.80;;;;;;;;;;5037995;28;20186;-68
2023/04/18 09:33:11;;;;;;;15.10;9.85;;;;;;;;;;5045279;28;20185;-69
2023/04/18 09:35:37;;;;;;;15.43;10.13;;;;;;;;;;5037825;28;20556;-69
2023/04/18 09:38:03;;;;;;;15.68;9.65;;;;;;;;;;5044097;28;20567;-69
2023/04/18 09:40:29;;;;;;;13.35;9.77;;;;;;;;;;5030721;28;20218;-69
2023/04/18 09:42:55;;;;;;;14.68;10.25;;;;;;;;;;5041610;28;20193;-69
2023/04/18 09:45:22;;;;;;;13.52;8.98;;;;;;;;;;5030789;28;20182;-69
2023/04/18 09:47:47;;;;;;;12.77;8.60;;;;;;;;;;5041889;28;20181;-68
2023/04/18 09:50:15;;;;;;;12.27;8.57;;;;;;;;;;5037496;28;20181;-69
2023/04/18 09:52:42;;;;;;;13.18;8.38;;;;;;;;;;5049737;28;20239;-70
2023/04/18 09:55:10;;;;;;;11.98;7.70;;;;;;;;;;5047108;28;20495;-69
2023/04/18 09:57:40;;;;;;;11.80;7.82;;;;;;;;;;5050208;28;20209;-69
2023/04/18 10:00:12;;;;;;;10.77;7.70;;;;;;;;;;5052061;28;20205;-69
2023/04/18 10:02:52;;;;;;;12.38;8.13;;;;;;;;;;5050234;28;20185;-69
2023/04/18 10:05:22;;;;;;;14.52;8.45;;;;;;;;;;5033387;28;20545;-69
2023/04/18 10:07:49;;;;;;;10.25;8.15;;;;;;;;;;5040676;28;20189;-70
2023/04/18 10:10:15;;;;;;;11.27;8.32;;;;;;;;;;5052039;28;20192;-70
2023/04/18 10:12:41;;;;;;;13.30;8.70;;;;;;;;;;5043093;28;20190;-69
2023/04/18 10:15:08;;;;;;;12.82;8.40;;;;;;;;;;5044467;28;20205;-69
2023/04/18 10:17:52;;;;;;;11.93;8.75;;;;;;;;;;5043652;28;20210;-70
2023/04/18 10:20:20;;;;;;;10.88;8.27;;;;;;;;;;5040265;28;20272;-69
2023/04/18 10:22:47;;;;;;;10.40;8.10;;;;;;;;;;5039563;28;20214;-69
2023/04/18 10:25:13;;;;;;;12.48;8.80;;;;;;;;;;5042003;28;20194;-69
2023/04/18 10:27:55;;;;;;;11.20;8.50;;;;;;;;;;5050137;28;20201;-68
2023/04/18 10:30:40;;;;;;;13.77;8.98;;;;;;;;;;5048915;28;20181;-68
2023/04/18 10:33:39;;;;;;;11.50;8.57;;;;;;;;;;5049645;28;20617;-68
2023/04/18 10:36:14;;;;;;;13.77;9.27;;;;;;;;;;5043712;28;20312;-68
2023/04/18 10:38:44;;;;;;;12.70;9.02;;;;;;;;;;5037678;28;20221;-68
2023/04/18 10:41:20;;;;;;;13.02;10.02;;;;;;;;;;5041638;28;20189;-68
2023/04/18 10:44:04;;;;;;;14.52;11.13;;;;;;;;;;5038101;28;20200;-68
2023/04/18 10:46:30;;;;;;;16.25;10.57;;;;;;;;;;5046372;28;20182;-67
2023/04/18 10:49:14;;;;;;;14.05;10.25;;;;;;;;;;5042961;28;20236;-68
2023/04/18 10:51:40;;;;;;;15.20;11.30;;;;;;;;;;5045495;28;20185;-68
2023/04/18 10:54:11;;;;;;;15.38;10.88;;;;;;;;;;5049922;28;20192;-68
2023/04/18 10:56:38;;;;;;;15.57;11.40;;;;;;;;;;5055207;28;20266;-68
2023/04/18 10:59:04;;;;;;;17.83;10.73;;;;;;;;;;5047171;28;20358;-68
2023/04/18 11:01:31;;;;;;;14.35;10.20;;;;;;;;;;5049703;28;20209;-68
2023/04/18 11:03:57;;;;;;;16.27;11.55;;;;;;;;;;5043482;28;20198;-68
2023/04/18 11:06:26;;;;;;;17.10;11.35;;;;;;;;;;5039618;28;20540;-68
2023/04/18 11:09:08;;;;;;;20.40;11.68;;;;;;;;;;5043607;28;20597;-69
2023/04/18 11:11:33;;;;;;;15.25;10.82;;;;;;;;;;5029181;28;20293;-68
2023/04/18 11:13:58;;;;;;;17.15;11.35;;;;;;;;;;5047768;28;20223;-68
2023/04/18 11:16:32;;;;;;;17.05;11.45;;;;;;;;;;5037891;28;20182;-68
2023/04/18 11:18:57;;;;;;;15.85;10.60;;;;;;;;;;5038397;28;20209;-68
2023/04/18 11:21:27;;;;;;;17.85;11.48;;;;;;;;;;5040327;28;20223;-69
2023/04/18 11:23:56;;;;;;;15.73;11.23;;;;;;;;;;5046628;28;20190;-68
2023/04/18 11:26:27;;;;;;;16.10;11.25;;;;;;;;;;5031343;28;20445;-69
2023/04/18 11:28:56;;;;;;;14.93;10.75;;;;;;;;;;5041965;28;20189;-68
2023/04/18 11:31:23;;;;;;;16.50;10.60;;;;;;;;;;5038953;28;20313;-68
2023/04/18 11:33:55;;;;;;;15.77;10.68;;;;;;;;;;5039747;28;20201;-68
2023/04/18 11:36:20;;;;;;;15.80;10.63;;;;;;;;;;5036202;28;20221;-70
2023/04/18 11:38:45;;;;;;;14.73;10.00;;;;;;;;;;5038824;28;20276;-69
2023/04/18 11:41:13;;;;;;;17.50;10.13;;;;;;;;;;5041821;28;20197;-68
2023/04/18 11:43:42;;;;;;;16.35;10.68;;;;;;;;;;5043164;28;20641;-69
2023/04/18 11:46:07;;;;;;;19.88;11.40;;;;;;;;;;5044399;28;20199;-69
2023/04/18 11:48:37;;;;;;;15.80;11.10;;;;;;;;;;5042584;28;20185;-70
2023/04/18 11:51:04;;;;;;;17.52;11.88;;;;;;;;;;5041460;28;20190;-68
2023/04/18 11:53:34;;;;;;;18.95;11.45;;;;;;;;;;5043072;28;20267;-68
2023/04/18 11:56:00;;;;;;;16.80;11.18;;;;;;;;;;5041994;28;20228;-68
2023/04/18 11:58:32;;;;;;;16.20;10.57;;;;;;;;;;5040167;28;20221;-68
2023/04/18 12:00:59;;;;;;;15.55;10.70;;;;;;;;;;5045045;28;20857;-68
2023/04/18 12:03:24;;;;;;;14.23;10.27;;;;;;;;;;5043396;28;20250;-67
2023/04/18 12:05:59;;;;;;;16.08;10.48;;;;;;;;;;5043472;28;20189;-67
2023/04/18 12:08:25;;;;;;;17.42;11.10;;;;;;;;;;5034376;28;20212;-68
2023/04/18 12:10:53;;;;;;;13.43;9.93;;;;;;;;;;5041156;28;20198;-70
2023/04/18 12:13:24;;;;;;;16.02;10.57;;;;;;;;;;5043262;28;20177;-67
2023/04/18 12:15:50;;;;;;;13.20;9.57;;;;;;;;;;5040154;28;20217;-67
2023/04/18 12:18:18;;;;;;;13.90;9.43;;;;;;;;;;5041966;28;20209;-67
2023/04/18 12:20:48;;;;;;;14.27;9.27;;;;;;;;;;5042476;28;20519;-68
2023/04/18 12:23:29;;;;;;;12.25;8.82;;;;;;;;;;5042737;28;20218;-68
2023/04/18 12:26:00;;;;;;;15.50;9.95;;;;;;;;;;5042470;28;20632;-68
2023/04/18 12:28:26;;;;;;;15.07;9.93;;;;;;;;;;5043584;28;20178;-68
2023/04/18 12:30:51;;;;;;;12.63;9.52;;;;;;;;;;5040781;28;21184;-68
2023/04/18 12:33:16;;;;;;;13.45;10.32;;;;;;;;;;5044199;28;20617;-69
2023/04/18 12:35:42;;;;;;;14.65;9.95;;;;;;;;;;5024362;28;20197;-68
2023/04/18 12:38:07;;;;;;;14.48;10.55;;;;;;;;;;5042113;28;20216;-68
2023/04/18 12:40:33;;;;;;;14.20;10.23;;;;;;;;;;5042222;28;20194;-69
2023/04/18 12:42:58;;;;;;;16.23;10.35;;;;;;;;;;5042129;28;20630;-69
2023/04/18 12:45:23;;;;;;;14.60;10.27;;;;;;;;;;5041903;28;20200;-69
2023/04/18 12:47:50;;;;;;;12.30;9.50;;;;;;;;;;5042235;28;20679;-70
2023/04/18 12:50:20;;;;;;;12.68;9.10;;;;;;;;;;5041036;28;20220;-68
2023/04/18 12:52:47;;;;;;;12.65;9.43;;;;;;;;;;5040171;28;20503;-69
2023/04/18 12:55:12;;;;;;;12.68;9.73;;;;;;;;;;5041524;28;20640;-68
2023/04/18 12:57:39;;;;;;;13.77;8.70;;;;;;;;;;5040864;28;20288;-69
2023/04/18 13:00:10;;;;;;;13.93;9.00;;;;;;;;;;5039280;28;20246;-69
2023/04/18 13:02:37;;;;;;;12.20;9.52;;;;;;;;;;5041352;28;20675;-69
2023/04/18 13:05:07;;;;;;;12.60;8.93;;;;;;;;;;5041265;28;20640;-69
2023/04/18 13:07:33;;;;;;;14.65;9.75;;;;;;;;;;5042130;28;20228;-68
2023/04/18 13:09:58;;;;;;;12.90;9.68;;;;;;;;;;5042892;28;20358;-69
2023/04/18 13:12:24;;;;;;;14.20;8.82;;;;;;;;;;5046614;28;20196;-69
2023/04/18 13:14:49;;;;;;;12.65;8.57;;;;;;;;;;5046612;28;20668;-68
2023/04/18 13:17:14;;;;;;;12.02;8.63;;;;;;;;;;5047504;28;20212;-69
2023/04/18 13:19:40;;;;;;;10.32;8.70;;;;;;;;;;5044011;28;20684;-69
2023/04/18 13:22:05;;;;;;;16.02;9.32;;;;;;;;;;5038856;28;20279;-68
2023/04/18 13:24:31;;;;;;;13.68;8.80;;;;;;;;;;5038498;28;20182;-70
2023/04/18 13:26:56;;;;;;;14.73;9.75;;;;;;;;;;5038827;28;20198;-68
2023/04/18 13:29:21;;;;;;;13.57;9.20;;;;;;;;;;5041390;28;20188;-68
2023/04/18 13:31:47;;;;;;;11.82;8.95;;;;;;;;;;5042133;28;20192;-68
2023/04/18 13:34:12;;;;;;;12.30;8.30;;;;;;;;;;5044447;28;20189;-68
2023/04/18 13:36:38;;;;;;;11.15;8.55;;;;;;;;;;5042731;28;20225;-67
2023/04/18 13:39:06;;;;;;;15.32;8.73;;;;;;;;;;5041349;28;20237;-68
2023/04/18 13:41:32;;;;;;;11.68;8.77;;;;;;;;;;5048284;28;20268;-69
2023/04/18 13:43:58;;;;;;;11.00;8.30;;;;;;;;;;5046797;28;20201;-68
2023/04/18 13:46:25;;;;;;;11.55;8.02;;;;;;;;;;5043533;28;20197;-68
2023/04/18 13:48:50;;;;;;;12.23;8.57;;;;;;;;;;5048648;28;20189;-68
2023/04/18 13:51:16;;;;;;;9.43;8.23;;;;;;;;;;5050747;28;20676;-68
2023/04/18 13:53:41;;;;;;;12.13;8.68;;;;;;;;;;5043070;28;20522;-68
2023/04/18 13:56:06;;;;;;;9.55;8.00;;;;;;;;;;5034177;28;20201;-68
2023/04/18 13:58:32;;;;;;;12.77;8.80;;;;;;;;;;5045463;28;20520;-68
2023/04/18 14:00:57;;;;;;;11.30;8.85;;;;;;;;;;5040005;28;20213;-68
2023/04/18 14:03:22;;;;;;;10.90;8.48;;;;;;;;;;5046690;28;20193;-69
2023/04/18 14:05:48;;;;;;;12.93;8.88;;;;;;;;;;5037277;28;20220;-71
2023/04/18 14:08:13;;;;;;;9.55;7.95;;;;;;;;;;5041661;28;20530;-69
2023/04/18 14:10:39;;;;;;;10.43;8.48;;;;;;;;;;5046356;28;20603;-68
2023/04/18 14:13:04;;;;;;;10.13;8.30;;;;;;;;;;5033292;28;20194;-69
2023/04/18 14:15:31;;;;;;;10.88;8.23;;;;;;;;;;5036652;28;20198;-68
2023/04/18 14:17:58;;;;;;;9.85;8.00;;;;;;;;;;5034036;28;20194;-68
2023/04/18 14:20:24;;;;;;;10.88;8.20;;;;;;;;;;5050363;28;20683;-68
2023/04/18 14:22:49;;;;;;;11.32;8.48;;;;;;;;;;5047348;28;20204;-68
2023/04/18 14:25:18;;;;;;;9.50;8.07;;;;;;;;;;5042404;28;20190;-68